Time;durP1;ratioP1;P1;durP2;ratioP2;P2;SDS_P1;SDS_P2;PMS_P1;PMS_P2;Temp;Humidity;BMP_temperature;BMP_pressure;BME280_temperature;BME280_humidity;BME280_pressure;Samples;Min_cycle;Max_cycle;Signal;HPM_P1;HPM_P2
2022/10/08 00:00:52;;;;;;;17.30;15.50;;;25.40;98.10;;;;;;5113144;27;20449;-66
2022/10/08 00:03:25;;;;;;;19.37;17.00;;;25.40;98.90;;;;;;5120714;27;20452;-66
2022/10/08 00:06:00;;;;;;;18.10;15.20;;;25.30;99.00;;;;;;5120346;27;20512;-67
2022/10/08 00:08:32;;;;;;;17.80;14.53;;;25.30;99.90;;;;;;5125019;27;20447;-66
2022/10/08 00:11:09;;;;;;;19.40;16.13;;;25.20;99.90;;;;;;5117314;27;20529;-67
2022/10/08 00:13:42;;;;;;;19.57;15.77;;;25.10;99.90;;;;;;5138859;27;20829;-66
2022/10/08 00:16:15;;;;;;;18.33;15.83;;;25.10;99.90;;;;;;5143457;27;20480;-66
2022/10/08 00:18:47;;;;;;;19.90;16.63;;;25.00;99.90;;;;;;5143183;27;20608;-65
2022/10/08 00:21:20;;;;;;;20.23;17.37;;;24.90;99.90;;;;;;5143464;27;20452;-66
2022/10/08 00:23:52;;;;;;;19.33;17.30;;;24.90;99.90;;;;;;5143617;27;20452;-66
2022/10/08 00:26:26;;;;;;;19.77;16.33;;;24.80;99.90;;;;;;5126549;27;20485;-65
2022/10/08 00:28:59;;;;;;;17.00;15.30;;;24.80;99.90;;;;;;5123172;28;20462;-66
2022/10/08 00:31:32;;;;;;;18.00;15.83;;;24.60;99.70;;;;;;5137542;27;20447;-65
2022/10/08 00:34:04;;;;;;;21.10;16.77;;;24.60;99.90;;;;;;5144160;27;20443;-65
2022/10/08 00:36:36;;;;;;;21.93;17.10;;;24.60;99.90;;;;;;5143541;27;20487;-65
2022/10/08 00:39:10;;;;;;;18.80;16.80;;;24.50;99.90;;;;;;5143350;27;20494;-65
2022/10/08 00:41:44;;;;;;;20.10;16.70;;;24.40;99.90;;;;;;5143068;27;20473;-66
2022/10/08 00:44:50;;;;;;;19.27;16.90;;;24.30;99.90;;;;;;5143899;27;20431;-66
2022/10/08 00:47:34;;;;;;;21.37;17.37;;;24.20;99.90;;;;;;5103069;28;20732;-66
2022/10/08 00:50:10;;;;;;;20.40;17.47;;;24.10;99.90;;;;;;5102930;28;20442;-65
2022/10/08 00:52:46;;;;;;;19.93;17.20;;;24.00;99.90;;;;;;5136483;28;20447;-65
2022/10/08 00:55:19;;;;;;;18.03;16.10;;;23.80;99.90;;;;;;5143235;27;20497;-65
2022/10/08 00:57:52;;;;;;;21.43;16.93;;;23.80;99.90;;;;;;5142600;27;20938;-66
2022/10/08 01:00:26;;;;;;;21.00;17.70;;;23.60;99.90;;;;;;5142605;27;20448;-66
2022/10/08 01:02:57;;;;;;;18.50;16.57;;;23.50;99.90;;;;;;5142065;27;20458;-66
2022/10/08 01:05:47;;;;;;;19.53;17.43;;;23.40;99.90;;;;;;5140860;28;20450;-66
2022/10/08 01:08:26;;;;;;;22.67;18.87;;;23.30;99.90;;;;;;5133026;28;20467;-66
2022/10/08 01:11:06;;;;;;;24.27;19.77;;;23.20;99.90;;;;;;5143059;27;20766;-65
2022/10/08 01:13:48;;;;;;;26.53;23.10;;;23.00;99.90;;;;;;5142659;27;20452;-66
2022/10/08 01:16:28;;;;;;;28.57;25.07;;;22.90;99.90;;;;;;5142925;27;20530;-66
2022/10/08 01:19:08;;;;;;;29.43;23.00;;;22.80;99.90;;;;;;5142001;27;20498;-65
2022/10/08 01:21:46;;;;;;;25.40;21.63;;;22.60;99.90;;;;;;5141017;28;20748;-66
2022/10/08 01:27:33;;;;;;;25.03;20.60;;;22.30;99.90;;;;;;5136616;28;20448;-65
2022/10/08 01:30:08;;;;;;;23.50;20.20;;;22.20;99.90;;;;;;5142055;27;20424;-66
2022/10/08 01:32:45;;;;;;;23.53;20.20;;;22.10;99.90;;;;;;5114514;28;20486;-66
2022/10/08 01:35:23;;;;;;;23.30;19.70;;;21.90;99.90;;;;;;5142836;27;20436;-66
2022/10/08 01:37:56;;;;;;;25.20;20.47;;;21.80;99.90;;;;;;5131586;28;20456;-65
2022/10/08 01:40:31;;;;;;;24.10;20.77;;;21.70;99.90;;;;;;5142160;27;20449;-66
2022/10/08 01:43:07;;;;;;;27.23;20.40;;;21.60;99.90;;;;;;5142319;27;20445;-66
2022/10/08 01:45:41;;;;;;;21.53;18.90;;;21.40;99.90;;;;;;5142596;27;20473;-65
2022/10/08 01:48:17;;;;;;;24.93;20.20;;;21.30;99.90;;;;;;5142513;27;20475;-65
2022/10/08 01:50:58;;;;;;;25.60;19.47;;;21.20;99.90;;;;;;5144585;27;20423;-65
2022/10/08 01:53:33;;;;;;;24.00;17.43;;;21.10;99.90;;;;;;5146427;27;20444;-65
2022/10/08 01:56:06;;;;;;;22.33;19.73;;;20.90;99.90;;;;;;5145085;27;20533;-65
2022/10/08 01:58:46;;;;;;;23.53;18.93;;;20.80;99.90;;;;;;5146032;27;20472;-66
2022/10/08 02:01:23;;;;;;;23.30;19.97;;;20.70;99.90;;;;;;5145701;27;20494;-66
2022/10/08 02:06:48;;;;;;;22.00;18.63;;;20.50;99.90;;;;;;5145255;27;20484;-65
2022/10/08 02:09:19;;;;;;;21.10;17.83;;;20.40;99.90;;;;;;5145420;27;20567;-66
2022/10/08 02:11:52;;;;;;;23.97;19.90;;;20.40;99.90;;;;;;5145952;27;20433;-65
2022/10/08 02:14:27;;;;;;;23.40;19.40;;;20.20;99.90;;;;;;5146137;27;20487;-65
2022/10/08 02:17:06;;;;;;;24.67;20.33;;;20.20;99.90;;;;;;5145593;27;20462;-65
2022/10/08 02:19:47;;;;;;;24.03;19.30;;;20.10;99.90;;;;;;5145722;27;20444;-65
2022/10/08 02:22:22;;;;;;;24.37;19.33;;;20.00;99.90;;;;;;5145452;27;20456;-65
2022/10/08 02:24:57;;;;;;;23.23;18.40;;;20.00;99.90;;;;;;5142236;27;20456;-66
2022/10/08 02:27:37;;;;;;;23.10;18.03;;;19.90;99.90;;;;;;5145432;27;20403;-66
2022/10/08 02:30:12;;;;;;;27.53;20.13;;;19.80;99.90;;;;;;5145531;27;20419;-65
2022/10/08 02:32:51;;;;;;;25.97;20.23;;;19.80;99.90;;;;;;5145120;27;20448;-65
2022/10/08 02:35:25;;;;;;;31.10;20.73;;;19.70;99.90;;;;;;5144925;27;20442;-65
2022/10/08 02:38:01;;;;;;;25.00;20.50;;;19.60;99.90;;;;;;5144772;27;20479;-65
2022/10/08 02:40:34;;;;;;;26.87;20.50;;;19.60;99.90;;;;;;5104242;28;20446;-65
2022/10/08 02:43:09;;;;;;;27.70;19.93;;;19.50;99.90;;;;;;5104411;28;20596;-65
2022/10/08 02:45:45;;;;;;;23.87;20.17;;;19.50;99.90;;;;;;5106554;27;20432;-65
2022/10/08 02:48:21;;;;;;;25.13;18.30;;;19.40;99.90;;;;;;5145733;27;20591;-65
2022/10/08 02:50:54;;;;;;;26.13;20.70;;;19.30;99.90;;;;;;5144708;27;20435;-65
2022/10/08 02:53:26;;;;;;;26.20;20.20;;;19.30;99.90;;;;;;5144531;27;20537;-65
2022/10/08 02:56:06;;;;;;;26.50;20.47;;;19.20;99.90;;;;;;5138484;27;20546;-65
2022/10/08 02:58:37;;;;;;;27.33;19.43;;;19.10;99.90;;;;;;5124715;27;20494;-66
2022/10/08 03:01:17;;;;;;;25.60;19.03;;;19.10;99.90;;;;;;5121298;27;20474;-64
2022/10/08 03:03:52;;;;;;;23.60;19.43;;;19.10;99.90;;;;;;5114644;27;20428;-65
2022/10/08 03:06:23;;;;;;;27.37;18.57;;;19.00;99.90;;;;;;5126778;27;20515;-65
2022/10/08 03:08:57;;;;;;;24.70;18.73;;;18.90;99.90;;;;;;5139262;27;20544;-65
2022/10/08 03:11:30;;;;;;;26.57;19.97;;;18.80;99.90;;;;;;5134266;27;20436;-65
2022/10/08 03:14:04;;;;;;;30.00;19.33;;;18.80;99.90;;;;;;5116666;27;20470;-66
2022/10/08 03:16:39;;;;;;;28.00;19.10;;;18.80;99.90;;;;;;5126667;27;20493;-65
2022/10/08 03:19:12;;;;;;;25.17;19.17;;;18.70;99.90;;;;;;5120983;27;20542;-64
2022/10/08 03:21:44;;;;;;;23.80;18.87;;;18.70;99.90;;;;;;5120677;27;20437;-65
2022/10/08 03:24:16;;;;;;;28.17;18.63;;;18.60;99.90;;;;;;5120253;28;20432;-65
2022/10/08 03:26:47;;;;;;;26.80;19.03;;;18.70;99.90;;;;;;5113590;27;20496;-64
2022/10/08 03:29:17;;;;;;;23.10;18.67;;;18.70;99.90;;;;;;5138167;27;20517;-65
2022/10/08 03:31:51;;;;;;;33.93;19.90;;;18.60;99.90;;;;;;5136775;27;20787;-65
2022/10/08 03:34:22;;;;;;;26.50;18.17;;;18.50;99.90;;;;;;5129299;27;20432;-64
2022/10/08 03:36:53;;;;;;;30.23;20.17;;;18.50;99.90;;;;;;5135801;27;20521;-65
2022/10/08 03:39:24;;;;;;;25.03;19.17;;;18.40;99.90;;;;;;5103293;28;20455;-65
2022/10/08 03:41:54;;;;;;;24.80;18.73;;;18.40;99.90;;;;;;5120559;27;20437;-65
2022/10/08 03:44:25;;;;;;;23.47;19.20;;;18.40;99.90;;;;;;5123562;27;20437;-65
2022/10/08 03:46:58;;;;;;;22.23;18.83;;;18.30;99.90;;;;;;5131752;27;20453;-64
2022/10/08 03:49:28;;;;;;;26.33;18.60;;;18.30;99.90;;;;;;5121994;27;20927;-64
2022/10/08 03:51:59;;;;;;;25.47;17.93;;;18.20;99.90;;;;;;5138366;27;21306;-65
2022/10/08 03:54:30;;;;;;;22.53;18.67;;;18.20;99.90;;;;;;5118487;27;20448;-64
2022/10/08 03:57:01;;;;;;;25.50;20.07;;;18.10;99.90;;;;;;5132639;27;20529;-65
2022/10/08 03:59:31;;;;;;;25.17;19.67;;;18.10;99.90;;;;;;5133791;27;20428;-64
2022/10/08 04:02:04;;;;;;;26.33;20.80;;;18.10;99.90;;;;;;5111934;27;20424;-65
2022/10/08 04:04:35;;;;;;;28.07;21.37;;;18.00;99.90;;;;;;5120146;27;20466;-64
2022/10/08 04:07:05;;;;;;;24.47;20.77;;;18.00;99.90;;;;;;5122966;27;20459;-64
2022/10/08 04:09:36;;;;;;;23.30;20.40;;;17.90;99.90;;;;;;5128111;27;20510;-64
2022/10/08 04:12:07;;;;;;;25.93;18.90;;;17.80;99.90;;;;;;5114664;27;20458;-65
2022/10/08 04:14:38;;;;;;;26.90;19.80;;;17.80;99.90;;;;;;5116814;27;20821;-65
2022/10/08 04:17:10;;;;;;;28.17;20.37;;;17.80;99.90;;;;;;5123405;27;20783;-65
2022/10/08 04:19:41;;;;;;;31.97;21.33;;;17.70;99.90;;;;;;5111596;27;20538;-65
2022/10/08 04:22:12;;;;;;;22.57;18.90;;;17.70;99.90;;;;;;5117157;27;20428;-66
2022/10/08 04:24:43;;;;;;;26.83;19.50;;;17.70;99.90;;;;;;5124289;27;20562;-63
2022/10/08 04:27:13;;;;;;;29.53;19.03;;;17.60;99.90;;;;;;5108332;28;20462;-64
2022/10/08 04:29:44;;;;;;;23.93;18.83;;;17.50;99.90;;;;;;5114745;27;20481;-65
2022/10/08 04:32:17;;;;;;;28.43;19.90;;;17.50;99.90;;;;;;5141728;27;20505;-64
2022/10/08 04:34:48;;;;;;;24.50;18.97;;;17.50;99.90;;;;;;5143488;27;20445;-65
2022/10/08 04:37:19;;;;;;;27.13;18.73;;;17.40;99.90;;;;;;5134191;27;20475;-64
2022/10/08 04:39:49;;;;;;;27.30;19.00;;;17.30;99.90;;;;;;5136931;27;20566;-65
2022/10/08 04:42:20;;;;;;;28.30;18.53;;;17.30;99.90;;;;;;5124227;27;20454;-64
2022/10/08 04:44:51;;;;;;;26.53;18.13;;;17.30;99.90;;;;;;5138707;27;20493;-64
2022/10/08 04:47:24;;;;;;;26.47;19.10;;;17.30;99.90;;;;;;5142247;27;20444;-64
2022/10/08 04:49:55;;;;;;;26.90;20.10;;;17.20;99.90;;;;;;5136578;27;20490;-64
2022/10/08 04:52:26;;;;;;;25.80;19.70;;;17.20;99.90;;;;;;5126292;27;20469;-65
2022/10/08 04:54:56;;;;;;;25.50;18.80;;;17.10;99.90;;;;;;5142507;27;20425;-64
2022/10/08 04:57:27;;;;;;;25.10;19.40;;;17.10;99.90;;;;;;5118230;27;20627;-63
2022/10/08 04:59:58;;;;;;;20.40;17.27;;;17.10;99.90;;;;;;5142636;27;20460;-65
2022/10/08 05:02:49;;;;;;;24.23;18.20;;;17.00;99.90;;;;;;5131429;28;20444;-65
2022/10/08 05:05:20;;;;;;;24.37;16.90;;;17.00;99.90;;;;;;5142593;28;20805;-64
2022/10/08 05:07:53;;;;;;;23.50;18.60;;;16.90;99.90;;;;;;5142450;27;20460;-64
2022/10/08 05:10:24;;;;;;;23.67;17.70;;;17.00;99.90;;;;;;5139626;27;20448;-63
2022/10/08 05:12:56;;;;;;;23.67;18.03;;;17.00;99.90;;;;;;5130430;27;20484;-63
2022/10/08 05:15:27;;;;;;;22.23;18.17;;;16.90;99.90;;;;;;5140170;28;20448;-66
2022/10/08 05:17:59;;;;;;;22.73;17.30;;;17.00;99.90;;;;;;5134165;28;20447;-64
2022/10/08 05:20:30;;;;;;;23.57;17.73;;;16.90;99.90;;;;;;5130516;27;20584;-64
2022/10/08 05:23:01;;;;;;;25.33;17.37;;;16.90;99.90;;;;;;5140010;27;20482;-65
2022/10/08 05:25:32;;;;;;;22.17;18.30;;;16.90;99.90;;;;;;5131206;27;20423;-65
2022/10/08 05:28:03;;;;;;;24.27;17.23;;;16.80;99.90;;;;;;5145836;27;20448;-64
2022/10/08 05:30:34;;;;;;;23.90;17.97;;;16.80;99.90;;;;;;5136760;27;20437;-64
2022/10/08 05:33:07;;;;;;;26.07;19.07;;;16.80;99.90;;;;;;5129025;27;20467;-64
2022/10/08 05:35:39;;;;;;;20.50;18.10;;;16.80;99.90;;;;;;5128783;27;20441;-64
2022/10/08 05:38:09;;;;;;;24.50;18.37;;;16.70;99.90;;;;;;5146639;27;20491;-64
2022/10/08 05:40:40;;;;;;;24.73;18.70;;;16.70;99.90;;;;;;5146461;27;20620;-64
2022/10/08 05:43:11;;;;;;;25.17;18.57;;;16.70;99.90;;;;;;5145783;27;20431;-64
2022/10/08 05:45:49;;;;;;;22.73;18.23;;;16.60;99.90;;;;;;5146724;27;20437;-64
2022/10/08 05:48:21;;;;;;;25.40;18.10;;;16.60;99.90;;;;;;5136310;27;20485;-64
2022/10/08 05:50:52;;;;;;;26.43;18.37;;;16.60;99.90;;;;;;5129028;27;20573;-64
2022/10/08 05:53:23;;;;;;;22.10;17.50;;;16.60;99.90;;;;;;5136871;27;20494;-64
2022/10/08 05:56:01;;;;;;;23.10;17.70;;;16.50;99.90;;;;;;5146256;27;20857;-64
2022/10/08 05:58:32;;;;;;;20.00;16.63;;;16.50;99.90;;;;;;5146028;27;20458;-64
2022/10/08 06:01:05;;;;;;;21.43;15.80;;;16.40;99.90;;;;;;5146254;27;20441;-64
2022/10/08 06:03:37;;;;;;;21.57;16.50;;;16.30;99.90;;;;;;5143293;27;20469;-63
2022/10/08 06:06:09;;;;;;;19.43;16.03;;;16.30;99.90;;;;;;5121270;27;20468;-64
2022/10/08 06:08:41;;;;;;;22.20;17.20;;;16.30;99.90;;;;;;5139521;27;20460;-64
2022/10/08 06:11:11;;;;;;;20.97;16.07;;;16.30;99.90;;;;;;5143538;27;20452;-63
2022/10/08 06:13:42;;;;;;;29.37;17.60;;;16.30;99.90;;;;;;5119351;27;20479;-63
2022/10/08 06:16:13;;;;;;;22.47;15.93;;;16.30;99.90;;;;;;5146290;27;20847;-64
2022/10/08 06:18:46;;;;;;;20.97;15.83;;;16.20;99.90;;;;;;5135637;27;20555;-63
2022/10/08 06:21:18;;;;;;;20.97;15.77;;;16.20;99.90;;;;;;5134425;27;20462;-63
2022/10/08 06:23:51;;;;;;;21.80;16.53;;;16.10;99.90;;;;;;5146127;27;20449;-63
2022/10/08 06:26:24;;;;;;;19.50;15.50;;;16.10;99.90;;;;;;5143078;27;20508;-64
2022/10/08 06:29:01;;;;;;;23.53;16.40;;;16.10;99.90;;;;;;5145929;27;20472;-64
2022/10/08 06:31:32;;;;;;;21.90;15.47;;;16.10;99.90;;;;;;5145537;27;20445;-64
2022/10/08 06:34:05;;;;;;;20.70;15.10;;;16.00;99.90;;;;;;5146203;27;20476;-64
2022/10/08 06:36:37;;;;;;;20.00;14.80;;;15.90;99.90;;;;;;5145809;27;20467;-63
2022/10/08 06:39:09;;;;;;;22.70;15.97;;;15.90;99.90;;;;;;5122547;27;20516;-63
2022/10/08 06:41:39;;;;;;;20.63;16.07;;;15.90;99.90;;;;;;5144703;27;20477;-63
2022/10/08 06:44:13;;;;;;;22.00;16.37;;;15.90;99.90;;;;;;5145633;27;20452;-64
2022/10/08 06:46:44;;;;;;;21.27;16.20;;;15.90;99.90;;;;;;5143313;27;20548;-64
2022/10/08 06:49:17;;;;;;;19.47;15.60;;;15.80;99.90;;;;;;5145979;27;21350;-63
2022/10/08 06:51:47;;;;;;;20.73;15.33;;;15.80;99.90;;;;;;5144758;27;20449;-63
2022/10/08 06:54:18;;;;;;;23.03;14.73;;;15.80;99.90;;;;;;5129163;27;20457;-64
2022/10/08 06:56:49;;;;;;;21.43;16.30;;;15.70;99.90;;;;;;5137891;27;20505;-63
2022/10/08 06:59:20;;;;;;;23.30;17.20;;;15.70;99.90;;;;;;5116037;27;20484;-64
2022/10/08 07:01:51;;;;;;;22.10;16.10;;;15.80;99.90;;;;;;5131795;27;20435;-64
2022/10/08 07:04:24;;;;;;;15.40;13.67;;;15.80;99.90;;;;;;5141072;27;20437;-64
2022/10/08 07:06:54;;;;;;;19.73;14.43;;;15.70;99.90;;;;;;5139575;27;20489;-64
2022/10/08 07:09:25;;;;;;;20.80;16.60;;;15.60;99.90;;;;;;5135214;27;20523;-63
2022/10/08 07:11:56;;;;;;;21.20;15.67;;;15.60;99.90;;;;;;5131596;27;20466;-64
2022/10/08 07:14:27;;;;;;;21.50;15.97;;;15.50;99.90;;;;;;5118820;27;20479;-63
2022/10/08 07:16:58;;;;;;;18.30;14.80;;;15.40;99.90;;;;;;5111396;27;20463;-63
2022/10/08 07:19:30;;;;;;;21.23;15.20;;;15.40;99.90;;;;;;5129177;27;20488;-63
2022/10/08 07:22:01;;;;;;;24.10;15.30;;;15.40;99.90;;;;;;5123710;27;20487;-62
2022/10/08 07:24:32;;;;;;;17.93;14.90;;;15.40;99.90;;;;;;5139706;27;20498;-62
2022/10/08 07:27:03;;;;;;;19.30;14.30;;;15.40;99.90;;;;;;5131038;27;20506;-63
2022/10/08 07:29:33;;;;;;;23.33;16.70;;;15.30;99.90;;;;;;5144594;27;20433;-63
2022/10/08 07:32:04;;;;;;;19.93;14.50;;;15.20;99.90;;;;;;5128952;27;20429;-63
2022/10/08 07:34:37;;;;;;;21.70;15.97;;;15.20;99.90;;;;;;5111708;27;20458;-62
2022/10/08 07:37:07;;;;;;;24.03;15.47;;;15.30;99.90;;;;;;5110653;27;20502;-63
2022/10/08 07:39:38;;;;;;;22.93;14.50;;;15.30;99.90;;;;;;5126348;27;20573;-63
2022/10/08 07:42:09;;;;;;;21.90;16.20;;;15.20;99.90;;;;;;5122504;27;20528;-63
2022/10/08 07:44:40;;;;;;;19.77;15.10;;;15.10;99.90;;;;;;5134272;27;20746;-63
2022/10/08 07:47:10;;;;;;;22.17;16.60;;;15.10;99.90;;;;;;5131698;27;20449;-64
2022/10/08 07:49:43;;;;;;;18.23;15.10;;;15.20;99.90;;;;;;5129993;27;20509;-63
2022/10/08 07:52:13;;;;;;;20.20;16.33;;;15.10;99.90;;;;;;5110529;27;20501;-63
2022/10/08 07:54:44;;;;;;;17.40;14.97;;;15.10;99.90;;;;;;5137097;27;20460;-63
2022/10/08 07:57:15;;;;;;;21.93;15.63;;;15.00;99.90;;;;;;5130680;27;20505;-63
2022/10/08 07:59:46;;;;;;;20.60;14.63;;;14.90;99.90;;;;;;5127402;27;20489;-64
2022/10/08 08:02:16;;;;;;;18.80;14.90;;;14.80;99.90;;;;;;5129904;27;20530;-63
2022/10/08 08:04:49;;;;;;;20.60;14.73;;;14.90;99.90;;;;;;5133392;27;20522;-63
2022/10/08 08:07:20;;;;;;;19.97;15.57;;;14.70;99.90;;;;;;5141572;27;20484;-63
2022/10/08 08:09:50;;;;;;;19.27;14.83;;;14.80;99.90;;;;;;5139431;27;20460;-63
2022/10/08 08:12:21;;;;;;;19.10;14.50;;;14.80;99.90;;;;;;5116986;27;20569;-63
2022/10/08 08:14:52;;;;;;;17.20;14.47;;;14.80;99.90;;;;;;5137539;27;20520;-64
2022/10/08 08:17:23;;;;;;;18.20;14.30;;;14.70;99.90;;;;;;5123795;27;20526;-63
2022/10/08 08:19:55;;;;;;;18.33;14.53;;;14.60;99.90;;;;;;5129238;27;20493;-63
2022/10/08 08:22:26;;;;;;;17.13;14.40;;;14.70;99.90;;;;;;5113962;27;20508;-63
2022/10/08 08:24:57;;;;;;;20.57;15.00;;;14.70;99.90;;;;;;5113023;27;20457;-63
2022/10/08 08:27:29;;;;;;;18.00;14.20;;;14.70;99.90;;;;;;5120212;27;20450;-63
2022/10/08 08:29:59;;;;;;;20.60;14.83;;;14.70;99.90;;;;;;5129647;27;20458;-63
2022/10/08 08:32:30;;;;;;;18.80;14.00;;;14.60;99.90;;;;;;5135111;27;20500;-63
2022/10/08 08:35:02;;;;;;;18.10;14.57;;;14.60;99.90;;;;;;5130491;27;20444;-63
2022/10/08 08:37:33;;;;;;;18.37;14.23;;;14.60;99.90;;;;;;5135931;27;20511;-63
2022/10/08 08:40:04;;;;;;;17.10;14.27;;;14.50;99.90;;;;;;5123724;27;20493;-63
2022/10/08 08:42:51;;;;;;;21.67;14.90;;;14.50;99.90;;;;;;5138040;27;20472;-63
2022/10/08 08:45:28;;;;;;;23.37;14.97;;;14.50;99.90;;;;;;5132594;27;20477;-63
2022/10/08 08:48:21;;;;;;;17.20;13.40;;;14.50;99.90;;;;;;5112422;28;20527;-63
2022/10/08 08:50:57;;;;;;;21.27;14.90;;;14.50;99.90;;;;;;5129033;27;20453;-63
2022/10/08 08:53:28;;;;;;;20.20;14.47;;;14.40;99.90;;;;;;5128924;27;20505;-63
2022/10/08 08:56:03;;;;;;;22.03;14.07;;;14.30;99.90;;;;;;5132279;27;20514;-63
2022/10/08 08:58:41;;;;;;;17.90;14.33;;;14.30;99.90;;;;;;5133943;27;20948;-63
2022/10/08 09:01:24;;;;;;;22.53;15.07;;;14.30;99.90;;;;;;5123144;27;20533;-64
2022/10/08 09:03:57;;;;;;;21.53;15.03;;;14.20;99.90;;;;;;5120039;27;20449;-64
2022/10/08 09:06:31;;;;;;;21.60;15.00;;;14.30;99.90;;;;;;5135686;27;20473;-63
2022/10/08 09:09:08;;;;;;;16.77;13.30;;;14.20;99.90;;;;;;5133401;27;20456;-63
2022/10/08 09:11:39;;;;;;;17.90;12.87;;;14.10;99.90;;;;;;5138945;27;20456;-63
2022/10/08 09:14:29;;;;;;;20.40;15.20;;;14.10;99.90;;;;;;5135573;27;20494;-63
2022/10/08 09:17:03;;;;;;;19.23;13.93;;;14.20;99.90;;;;;;5143411;27;20510;-63
2022/10/08 09:19:34;;;;;;;16.90;13.20;;;14.10;99.90;;;;;;5132250;27;20499;-63
2022/10/08 09:22:13;;;;;;;20.17;14.53;;;14.10;99.90;;;;;;5135667;27;20500;-64
2022/10/08 09:24:43;;;;;;;17.70;14.17;;;14.00;99.90;;;;;;5142873;27;20505;-63
2022/10/08 09:27:16;;;;;;;21.00;15.90;;;14.00;99.90;;;;;;5140742;27;20940;-63
2022/10/08 09:29:48;;;;;;;18.10;13.50;;;14.00;99.90;;;;;;5123405;27;20523;-63
2022/10/08 09:32:21;;;;;;;16.87;13.10;;;14.00;99.90;;;;;;5143455;27;20482;-63
2022/10/08 09:34:56;;;;;;;16.37;12.50;;;14.00;99.90;;;;;;5144095;27;20497;-63
2022/10/08 09:37:28;;;;;;;20.30;15.50;;;13.90;99.90;;;;;;5120702;27;20452;-62
2022/10/08 09:40:20;;;;;;;18.80;12.70;;;14.00;99.90;;;;;;5115492;27;20957;-63
2022/10/08 09:43:15;;;;;;;24.97;14.90;;;13.90;99.90;;;;;;5122809;27;20523;-63
2022/10/08 09:45:47;;;;;;;15.13;11.93;;;14.00;99.90;;;;;;5135353;27;20502;-63
2022/10/08 09:48:24;;;;;;;18.70;13.50;;;13.90;99.90;;;;;;5139506;27;20448;-63
2022/10/08 09:50:58;;;;;;;18.20;14.40;;;13.80;99.90;;;;;;5130133;27;20530;-63
2022/10/08 09:53:35;;;;;;;19.80;13.70;;;13.80;99.90;;;;;;5119281;28;20454;-62
2022/10/08 09:56:07;;;;;;;18.20;11.53;;;13.70;99.90;;;;;;5136178;27;20460;-62
2022/10/08 09:58:49;;;;;;;18.47;13.87;;;13.70;99.90;;;;;;5134209;27;20452;-63
2022/10/08 10:01:20;;;;;;;18.00;13.87;;;13.70;99.90;;;;;;5125166;27;20532;-62
2022/10/08 10:03:54;;;;;;;17.60;12.70;;;13.80;99.90;;;;;;5135707;27;20461;-62
2022/10/08 10:06:32;;;;;;;23.77;14.10;;;13.70;99.90;;;;;;5126498;27;20485;-63
2022/10/08 10:09:19;;;;;;;16.23;12.57;;;13.80;99.90;;;;;;5126643;27;20487;-63
2022/10/08 10:11:53;;;;;;;16.30;13.87;;;13.80;99.90;;;;;;5122321;27;20461;-63
2022/10/08 10:14:29;;;;;;;18.13;12.47;;;13.80;99.90;;;;;;5135165;27;20456;-63
2022/10/08 10:17:04;;;;;;;16.83;13.67;;;13.70;99.90;;;;;;5126492;27;20502;-63
2022/10/08 10:19:40;;;;;;;22.20;14.70;;;13.60;99.90;;;;;;5133969;27;20535;-63
2022/10/08 10:22:14;;;;;;;18.13;13.03;;;13.50;99.90;;;;;;5127301;27;20513;-63
2022/10/08 10:24:54;;;;;;;15.77;12.90;;;13.50;99.90;;;;;;5128543;27;20495;-62
2022/10/08 10:27:31;;;;;;;17.07;12.43;;;13.40;99.90;;;;;;5124922;27;20562;-63
2022/10/08 10:30:14;;;;;;;19.50;14.77;;;13.40;99.90;;;;;;5127543;27;20458;-62
2022/10/08 10:32:50;;;;;;;16.60;13.07;;;13.40;99.90;;;;;;5114470;27;20465;-62
2022/10/08 10:35:25;;;;;;;15.67;12.50;;;13.30;99.90;;;;;;5143913;27;20452;-62
2022/10/08 10:38:04;;;;;;;18.83;14.50;;;13.30;99.90;;;;;;5136246;27;20610;-62
2022/10/08 10:40:43;;;;;;;16.53;12.23;;;13.30;99.90;;;;;;5130683;27;21013;-62
2022/10/08 10:43:36;;;;;;;16.47;13.10;;;13.30;99.90;;;;;;5114048;27;20460;-62
2022/10/08 10:46:19;;;;;;;18.00;12.60;;;13.20;99.90;;;;;;5128380;27;20498;-62
2022/10/08 10:48:51;;;;;;;20.30;13.43;;;13.20;99.90;;;;;;5134197;27;20486;-62
2022/10/08 10:51:38;;;;;;;15.77;11.40;;;13.20;99.90;;;;;;5137491;27;20460;-62
2022/10/08 10:54:34;;;;;;;14.83;11.80;;;13.20;99.90;;;;;;5140967;27;20469;-62
2022/10/08 10:57:13;;;;;;;16.20;12.20;;;13.10;99.90;;;;;;5136361;27;20464;-63
2022/10/08 10:59:46;;;;;;;16.27;11.47;;;13.10;99.90;;;;;;5135204;27;20450;-62
2022/10/08 11:02:26;;;;;;;16.77;12.53;;;13.00;99.90;;;;;;5131135;27;20480;-62
2022/10/08 11:05:07;;;;;;;16.47;11.90;;;13.00;99.90;;;;;;5141477;27;20480;-62
2022/10/08 11:07:52;;;;;;;15.10;11.90;;;13.00;99.90;;;;;;5135114;27;20545;-62
2022/10/08 11:10:39;;;;;;;16.40;12.23;;;13.00;99.90;;;;;;5127548;27;20455;-62
2022/10/08 11:13:21;;;;;;;14.30;11.30;;;13.00;99.90;;;;;;5129993;27;20453;-62
2022/10/08 11:16:01;;;;;;;15.17;11.33;;;13.00;99.90;;;;;;5129734;27;21149;-62
2022/10/08 11:18:40;;;;;;;14.60;12.20;;;13.00;99.90;;;;;;5129712;27;20556;-63
2022/10/08 11:21:20;;;;;;;16.73;11.27;;;12.90;99.90;;;;;;5121736;27;20529;-62
2022/10/08 11:24:23;;;;;;;16.30;13.33;;;12.90;99.90;;;;;;5114795;27;20458;-63
2022/10/08 11:27:04;;;;;;;18.60;12.27;;;12.90;99.90;;;;;;5119226;27;20482;-62
2022/10/08 11:29:44;;;;;;;15.23;11.10;;;12.80;99.90;;;;;;5129747;27;21047;-62
2022/10/08 11:32:18;;;;;;;13.40;11.00;;;12.80;99.90;;;;;;5135161;27;20505;-62
2022/10/08 11:34:53;;;;;;;14.10;11.53;;;12.80;99.90;;;;;;5142087;27;20457;-62
2022/10/08 11:37:33;;;;;;;15.13;11.13;;;12.80;99.90;;;;;;5125220;27;20616;-62
2022/10/08 11:40:16;;;;;;;17.20;10.70;;;12.80;99.90;;;;;;5134159;27;20540;-62
2022/10/08 11:42:53;;;;;;;17.67;13.20;;;12.80;99.90;;;;;;5120525;27;20477;-62
2022/10/08 11:45:35;;;;;;;14.93;11.63;;;12.80;99.90;;;;;;5119187;27;20468;-63
2022/10/08 11:48:31;;;;;;;19.60;12.70;;;12.70;99.90;;;;;;5144148;27;20781;-62
2022/10/08 11:51:31;;;;;;;13.23;9.37;;;12.70;99.90;;;;;;5141818;27;20517;-64
2022/10/08 11:54:18;;;;;;;11.17;9.70;;;12.60;99.90;;;;;;5130294;27;20513;-63
2022/10/08 11:56:50;;;;;;;16.50;10.60;;;12.60;99.90;;;;;;5142911;27;20440;-63
2022/10/08 11:59:33;;;;;;;18.03;11.77;;;12.60;99.90;;;;;;5143275;27;20474;-62
2022/10/08 12:02:18;;;;;;;13.80;11.77;;;12.60;99.90;;;;;;5141006;27;20518;-63
2022/10/08 12:04:51;;;;;;;15.43;12.37;;;12.50;99.90;;;;;;5143519;27;20449;-63
2022/10/08 12:07:32;;;;;;;14.37;10.60;;;12.60;99.90;;;;;;5143251;27;20946;-63
2022/10/08 12:10:26;;;;;;;14.20;10.27;;;12.60;99.90;;;;;;5143156;27;20445;-63
2022/10/08 12:13:30;;;;;;;17.97;12.60;;;12.50;99.90;;;;;;5142453;27;20528;-63
2022/10/08 12:16:05;;;;;;;13.47;10.40;;;12.40;99.90;;;;;;5143417;27;20811;-63
2022/10/08 12:18:56;;;;;;;16.50;11.03;;;12.40;99.90;;;;;;5134471;27;20512;-63
2022/10/08 12:21:51;;;;;;;12.93;9.60;;;12.50;99.90;;;;;;5105287;27;20485;-63
2022/10/08 12:24:54;;;;;;;16.97;12.20;;;12.50;99.90;;;;;;5124743;27;20461;-63
2022/10/08 12:27:34;;;;;;;12.80;9.90;;;12.40;99.90;;;;;;5125709;27;20460;-63
2022/10/08 12:30:07;;;;;;;13.03;9.53;;;12.40;99.90;;;;;;5135710;27;20460;-63
2022/10/08 12:32:56;;;;;;;15.10;10.00;;;12.40;99.90;;;;;;5128123;27;20477;-63
2022/10/08 12:35:31;;;;;;;15.60;10.97;;;12.30;99.90;;;;;;5125288;27;20464;-63
2022/10/08 12:38:15;;;;;;;17.20;10.23;;;12.30;99.90;;;;;;5126321;27;20522;-63
2022/10/08 12:40:53;;;;;;;14.07;10.60;;;12.30;99.90;;;;;;5123036;27;20537;-62
2022/10/08 12:43:33;;;;;;;14.97;11.27;;;12.30;99.90;;;;;;5137221;27;20521;-63
2022/10/08 12:46:16;;;;;;;15.40;10.23;;;12.30;99.90;;;;;;5116623;27;20450;-63
2022/10/08 12:48:51;;;;;;;14.27;11.40;;;12.30;99.90;;;;;;5127814;27;20497;-63
2022/10/08 12:51:30;;;;;;;14.60;11.47;;;12.20;99.90;;;;;;5111601;27;20474;-63
2022/10/08 12:54:00;;;;;;;16.80;11.87;;;12.20;99.90;;;;;;5134157;27;20505;-63
2022/10/08 12:56:33;;;;;;;15.50;11.70;;;12.20;99.90;;;;;;5121314;28;20465;-63
2022/10/08 12:59:05;;;;;;;15.87;11.63;;;12.20;99.90;;;;;;5123354;28;20545;-62
2022/10/08 13:01:37;;;;;;;20.83;11.30;;;12.20;99.90;;;;;;5119095;27;20488;-63
2022/10/08 13:04:26;;;;;;;16.63;11.23;;;12.10;99.90;;;;;;5118701;28;20458;-63
2022/10/08 13:06:58;;;;;;;13.33;9.50;;;12.00;99.90;;;;;;5129312;28;20488;-62
2022/10/08 13:09:31;;;;;;;14.93;11.17;;;12.10;99.90;;;;;;5136336;27;20525;-63
2022/10/08 13:12:03;;;;;;;13.70;10.67;;;12.00;99.90;;;;;;5134020;27;20457;-63
2022/10/08 13:14:37;;;;;;;11.70;9.83;;;12.00;99.90;;;;;;5118220;27;20459;-63